createdAt,value
2018-05-16T00:00:25.754Z,7.10
2018-05-16T00:01:01.199Z,7.20
2018-05-16T00:01:36.498Z,6.90
2018-05-16T00:02:11.963Z,7.40
2018-05-16T00:02:47.321Z,7.10
2018-05-16T00:03:22.683Z,7.00
2018-05-16T00:03:58.154Z,7.20
2018-05-16T00:04:33.700Z,7.70
2018-05-16T00:05:09.164Z,7.70
2018-05-16T00:05:44.730Z,7.80
2018-05-16T00:06:19.956Z,6.80
2018-05-16T00:06:55.472Z,7.00
2018-05-16T00:07:30.562Z,7.10
2018-05-16T00:08:06.036Z,7.50
2018-05-16T00:08:41.318Z,7.20
2018-05-16T00:09:16.521Z,6.70
2018-05-16T00:09:51.805Z,6.60
2018-05-16T00:10:27.661Z,6.90
2018-05-16T00:11:02.986Z,7.40
2018-05-16T00:11:37.896Z,7.00
2018-05-16T00:12:13.346Z,7.20
2018-05-16T00:12:49.003Z,7.80
2018-05-16T00:13:24.446Z,7.80
2018-05-16T00:13:59.734Z,7.20
2018-05-16T00:14:34.790Z,7.40
2018-05-16T00:15:10.120Z,7.00
2018-05-16T00:15:45.453Z,7.10
2018-05-16T00:16:21.042Z,7.20
2018-05-16T00:16:56.483Z,6.70
2018-05-16T00:17:31.871Z,6.40
2018-05-16T00:18:07.205Z,6.50
2018-05-16T00:18:42.654Z,6.80
2018-05-16T00:19:18.194Z,7.30
2018-05-16T00:19:53.632Z,7.40
2018-05-16T00:20:29.342Z,7.20
2018-05-16T00:21:04.533Z,6.60
2018-05-16T00:21:40.148Z,7.00
2018-05-16T00:22:15.568Z,7.60
2018-05-16T00:22:51.203Z,7.70
2018-05-16T00:23:26.494Z,7.70
2018-05-16T00:24:01.828Z,7.80
2018-05-16T00:24:37.025Z,7.30
2018-05-16T00:25:12.559Z,7.00
2018-05-16T00:25:49.235Z,7.40
2018-05-16T00:26:24.820Z,7.50
2018-05-16T00:27:00.151Z,7.10
2018-05-16T00:27:35.599Z,7.00
2018-05-16T00:28:11.120Z,7.90
2018-05-16T00:28:46.796Z,7.90
2018-05-16T00:29:22.143Z,7.20
2018-05-16T00:29:57.747Z,7.20
2018-05-16T00:30:33.463Z,7.10
2018-05-16T00:31:08.856Z,7.40
2018-05-16T00:31:44.626Z,7.80
2018-05-16T00:32:19.977Z,7.90
2018-05-16T00:32:55.377Z,7.00
2018-05-16T00:33:31.001Z,6.90
2018-05-16T00:34:06.302Z,6.90
2018-05-16T00:34:41.798Z,8.30
2018-05-16T00:35:17.704Z,8.80
2018-05-16T00:35:52.813Z,7.90
2018-05-16T00:36:28.392Z,7.10
2018-05-16T00:37:03.877Z,7.00
2018-05-16T00:37:39.104Z,7.10
2018-05-16T00:38:14.516Z,7.20
2018-05-16T00:38:49.756Z,6.90
2018-05-16T00:39:25.110Z,7.30
2018-05-16T00:40:00.301Z,7.50
2018-05-16T00:40:35.776Z,7.60
2018-05-16T00:41:11.210Z,6.70
2018-05-16T00:41:46.867Z,7.00
2018-05-16T00:42:22.399Z,6.90
2018-05-16T00:42:58.055Z,6.50
2018-05-16T00:43:33.866Z,7.10
2018-05-16T00:44:09.205Z,7.20
2018-05-16T00:44:44.648Z,7.00
2018-05-16T00:45:20.119Z,7.30
2018-05-16T00:45:55.589Z,6.80
2018-05-16T00:46:31.283Z,7.00
2018-05-16T00:47:06.474Z,7.20
2018-05-16T00:47:41.651Z,7.40
2018-05-16T00:48:16.895Z,7.40
2018-05-16T00:48:52.107Z,7.10
2018-05-16T00:49:27.486Z,7.20
2018-05-16T00:50:02.705Z,6.90
2018-05-16T00:50:38.193Z,7.00
2018-05-16T00:51:13.190Z,6.40
2018-05-16T00:51:48.671Z,6.60
2018-05-16T00:52:23.943Z,6.70
2018-05-16T00:52:59.301Z,7.10
2018-05-16T00:53:34.619Z,7.20
2018-05-16T00:54:10.099Z,7.40
2018-05-16T00:54:45.347Z,7.60
2018-05-16T00:55:20.749Z,7.30
2018-05-16T00:55:56.546Z,6.80
2018-05-16T00:56:31.907Z,7.40
2018-05-16T00:57:07.657Z,6.50
2018-05-16T00:57:43.411Z,6.70
2018-05-16T00:58:18.819Z,6.90
2018-05-16T00:58:54.226Z,7.30
2018-05-16T00:59:29.462Z,7.20
2018-05-16T01:00:04.844Z,7.20
2018-05-16T01:00:40.289Z,7.40
2018-05-16T01:01:15.674Z,6.70
2018-05-16T01:01:51.475Z,7.40
2018-05-16T01:02:27.238Z,7.70
2018-05-16T01:03:02.759Z,8.00
2018-05-16T01:03:38.207Z,7.90
2018-05-16T01:04:13.583Z,7.90
2018-05-16T01:04:49.014Z,7.40
2018-05-16T01:05:24.342Z,7.30
2018-05-16T01:05:59.633Z,7.00
2018-05-16T01:06:34.851Z,7.20
2018-05-16T01:07:09.978Z,7.60
2018-05-16T01:07:45.309Z,7.10
2018-05-16T01:08:21.188Z,6.40
2018-05-16T01:08:56.515Z,7.00
2018-05-16T01:09:32.111Z,7.60
2018-05-16T01:10:07.136Z,7.90
2018-05-16T01:10:42.520Z,7.40
2018-05-16T01:11:17.873Z,6.80
2018-05-16T01:11:53.234Z,6.90
2018-05-16T01:12:28.606Z,7.20
2018-05-16T01:13:04.092Z,6.20
2018-05-16T01:13:39.421Z,6.70
2018-05-16T01:14:14.795Z,6.90
2018-05-16T01:14:50.004Z,6.80
2018-05-16T01:15:25.680Z,7.20
2018-05-16T01:16:01.077Z,6.70
2018-05-16T01:16:36.258Z,6.90
2018-05-16T01:17:11.438Z,7.00
2018-05-16T01:17:46.572Z,6.80
2018-05-16T01:18:21.993Z,6.80
2018-05-16T01:18:57.371Z,7.00
2018-05-16T01:19:32.953Z,7.40
2018-05-16T01:20:08.368Z,7.00
2018-05-16T01:20:43.649Z,7.20
2018-05-16T01:21:18.947Z,7.10
2018-05-16T01:21:54.129Z,6.30
2018-05-16T01:22:29.504Z,6.60
2018-05-16T01:23:04.669Z,6.90
2018-05-16T01:23:40.389Z,7.10
2018-05-16T01:24:15.795Z,7.20
2018-05-16T01:24:50.956Z,7.10
2018-05-16T01:25:26.589Z,7.60
2018-05-16T01:26:02.042Z,7.50
2018-05-16T01:26:37.244Z,6.90
2018-05-16T01:27:12.431Z,6.80
2018-05-16T01:27:48.128Z,7.50
2018-05-16T01:28:23.330Z,7.70
2018-05-16T01:28:58.662Z,7.10
2018-05-16T01:29:33.864Z,6.70
2018-05-16T01:30:09.285Z,7.10
2018-05-16T01:30:44.874Z,7.50
2018-05-16T01:31:20.238Z,7.70
2018-05-16T01:31:55.706Z,7.70
2018-05-16T01:32:31.061Z,7.10
2018-05-16T01:33:06.594Z,7.10
2018-05-16T01:33:42.266Z,7.60
2018-05-16T01:34:17.522Z,7.30
2018-05-16T01:34:52.858Z,6.70
2018-05-16T01:35:28.334Z,6.70
2018-05-16T01:36:03.566Z,6.80
2018-05-16T01:36:38.934Z,6.50
2018-05-16T01:37:14.221Z,6.70
2018-05-16T01:37:49.648Z,7.20
2018-05-16T01:38:24.763Z,6.90
2018-05-16T01:38:59.895Z,6.20
2018-05-16T01:39:35.569Z,5.50
2018-05-16T01:40:10.888Z,6.10
2018-05-16T01:40:46.408Z,6.30
2018-05-16T01:41:21.615Z,6.80
2018-05-16T01:41:56.826Z,6.90
2018-05-16T01:42:32.418Z,6.80
2018-05-16T01:43:08.098Z,6.90
2018-05-16T01:43:43.627Z,7.20
2018-05-16T01:44:19.089Z,7.20
2018-05-16T01:44:54.611Z,7.00
2018-05-16T01:45:29.818Z,6.50
2018-05-16T01:46:05.207Z,6.40
2018-05-16T01:46:40.651Z,7.40
2018-05-16T01:47:16.058Z,7.70
2018-05-16T01:47:51.253Z,8.10
2018-05-16T01:48:26.688Z,7.50
2018-05-16T01:49:01.974Z,7.50
2018-05-16T01:49:37.588Z,7.50
2018-05-16T01:50:13.011Z,7.10
2018-05-16T01:50:48.416Z,7.30
2018-05-16T01:51:24.288Z,7.80
2018-05-16T01:51:59.630Z,8.00
2018-05-16T01:52:34.941Z,8.30
2018-05-16T01:53:10.175Z,8.40
2018-05-16T01:53:45.345Z,7.30
2018-05-16T01:54:20.477Z,7.70
2018-05-16T01:54:56.024Z,8.60
2018-05-16T01:55:31.190Z,8.10
2018-05-16T01:56:06.489Z,7.70
2018-05-16T01:56:41.850Z,8.00
2018-05-16T01:57:17.219Z,8.70
2018-05-16T01:57:52.806Z,7.70
2018-05-16T01:58:28.349Z,7.90
2018-05-16T01:59:03.808Z,7.80
2018-05-16T01:59:38.894Z,7.50
2018-05-16T02:00:14.210Z,7.60
2018-05-16T02:00:49.392Z,7.60
2018-05-16T02:01:24.539Z,7.70
2018-05-16T02:02:00.109Z,8.10
2018-05-16T02:02:35.584Z,7.30
2018-05-16T02:03:10.989Z,7.80
2018-05-16T02:03:46.412Z,8.20
2018-05-16T02:04:21.864Z,7.40
2018-05-16T02:04:57.287Z,7.10
2018-05-16T02:05:33.014Z,7.00
2018-05-16T02:06:08.546Z,7.40
2018-05-16T02:06:45.181Z,7.40
2018-05-16T02:07:20.604Z,7.00
2018-05-16T02:07:56.014Z,6.70
2018-05-16T02:08:31.399Z,7.30
2018-05-16T02:09:06.830Z,7.10
2018-05-16T02:09:42.497Z,6.80
2018-05-16T02:10:17.739Z,7.00
2018-05-16T02:10:53.115Z,7.00
2018-05-16T02:11:28.418Z,7.50
2018-05-16T02:12:03.976Z,7.20
2018-05-16T02:12:40.921Z,6.90
2018-05-16T02:13:16.252Z,6.80
2018-05-16T02:13:51.483Z,7.70
2018-05-16T02:14:26.988Z,7.60
2018-05-16T02:15:02.285Z,7.30
2018-05-16T02:15:41.327Z,7.00
2018-05-16T02:16:16.544Z,7.30
2018-05-16T02:16:51.927Z,7.20
2018-05-16T02:17:27.498Z,7.30
2018-05-16T02:18:02.691Z,7.80
2018-05-16T02:18:38.026Z,7.50
2018-05-16T02:19:13.696Z,7.00
2018-05-16T02:19:48.969Z,7.10
2018-05-16T02:20:24.247Z,7.10
2018-05-16T02:20:59.584Z,7.30
2018-05-16T02:21:34.942Z,7.30
2018-05-16T02:22:10.785Z,7.30
2018-05-16T02:22:45.792Z,7.80
2018-05-16T02:23:21.119Z,7.60
2018-05-16T02:23:56.494Z,7.50
2018-05-16T02:24:32.137Z,7.30
2018-05-16T02:25:07.594Z,7.10
2018-05-16T02:25:43.202Z,7.60
2018-05-16T02:26:18.441Z,7.20
2018-05-16T02:26:53.783Z,7.10
2018-05-16T02:27:28.978Z,7.20
2018-05-16T02:28:04.651Z,7.40
2018-05-16T02:28:39.911Z,7.80
2018-05-16T02:29:15.554Z,7.60
2018-05-16T02:29:51.151Z,7.70
2018-05-16T02:30:26.443Z,7.70
2018-05-16T02:31:01.800Z,8.50
2018-05-16T02:31:37.380Z,7.70
2018-05-16T02:32:12.617Z,7.50
2018-05-16T02:32:47.920Z,7.90
2018-05-16T02:33:23.885Z,7.20
2018-05-16T02:33:59.178Z,7.20
2018-05-16T02:34:34.407Z,8.20
2018-05-16T02:35:09.615Z,8.00
2018-05-16T02:35:45.373Z,8.10
2018-05-16T02:36:20.571Z,8.80
2018-05-16T02:36:56.050Z,7.90
2018-05-16T02:37:31.517Z,7.20
2018-05-16T02:38:07.010Z,7.20
2018-05-16T02:38:42.323Z,8.00
2018-05-16T02:39:17.654Z,8.20
2018-05-16T02:39:53.199Z,7.40
2018-05-16T02:40:28.683Z,7.90
2018-05-16T02:41:04.290Z,8.60
2018-05-16T02:41:39.500Z,7.90
2018-05-16T02:42:15.020Z,7.80
2018-05-16T02:42:50.394Z,7.90
2018-05-16T02:43:25.710Z,7.60
2018-05-16T02:44:01.276Z,7.70
2018-05-16T02:44:36.616Z,8.10
2018-05-16T02:45:12.083Z,8.00
2018-05-16T02:45:47.630Z,7.90
2018-05-16T02:46:23.069Z,7.10
2018-05-16T02:46:58.674Z,8.10
2018-05-16T02:47:33.933Z,8.00
2018-05-16T02:48:09.483Z,8.10
2018-05-16T02:48:44.804Z,8.50
2018-05-16T02:49:20.625Z,7.90
2018-05-16T02:49:55.709Z,8.30
2018-05-16T02:50:31.154Z,7.90
2018-05-16T02:51:06.842Z,8.30
2018-05-16T02:51:42.001Z,8.00
2018-05-16T02:52:17.582Z,7.90
2018-05-16T02:52:52.827Z,8.40
2018-05-16T02:53:28.282Z,8.50
2018-05-16T02:54:03.544Z,8.10
2018-05-16T02:54:38.877Z,8.00
2018-05-16T02:55:14.467Z,8.50
2018-05-16T02:55:49.824Z,8.20
2018-05-16T02:56:25.340Z,8.00
2018-05-16T02:57:00.712Z,8.00
2018-05-16T02:57:36.055Z,7.90
2018-05-16T02:58:11.619Z,7.60
2018-05-16T02:58:46.814Z,8.00
2018-05-16T02:59:22.251Z,7.80
2018-05-16T02:59:57.634Z,8.20
2018-05-16T03:00:33.182Z,8.10
2018-05-16T03:01:08.475Z,7.60
2018-05-16T03:01:43.808Z,7.60
2018-05-16T03:02:19.218Z,8.20
2018-05-16T03:02:54.505Z,8.00
2018-05-16T03:03:29.539Z,8.00
2018-05-16T03:04:04.763Z,8.40
2018-05-16T03:04:40.030Z,8.30
2018-05-16T03:05:15.373Z,8.40
2018-05-16T03:05:51.166Z,8.80
2018-05-16T03:06:26.310Z,8.70
2018-05-16T03:07:01.453Z,8.30
2018-05-16T03:07:36.838Z,7.90
2018-05-16T03:08:12.122Z,7.60
2018-05-16T03:08:47.434Z,8.30
2018-05-16T03:09:22.718Z,8.60
2018-05-16T03:09:58.068Z,8.70
2018-05-16T03:10:33.362Z,8.60
2018-05-16T03:11:08.794Z,8.60
2018-05-16T03:11:44.292Z,9.40
2018-05-16T03:12:19.861Z,9.40
2018-05-16T03:12:55.087Z,8.90
2018-05-16T03:13:30.337Z,8.90
2018-05-16T03:14:05.637Z,9.50
2018-05-16T03:14:41.005Z,9.00
2018-05-16T03:15:16.624Z,9.40
2018-05-16T03:15:52.326Z,9.80
2018-05-16T03:16:27.855Z,9.30
2018-05-16T03:17:03.317Z,9.50
2018-05-16T03:17:38.794Z,9.80
2018-05-16T03:18:13.953Z,9.60
2018-05-16T03:18:49.615Z,9.40
2018-05-16T03:19:25.242Z,9.30
2018-05-16T03:20:00.906Z,9.60
2018-05-16T03:20:36.892Z,9.90
2018-05-16T03:21:12.297Z,9.40
2018-05-16T03:21:47.718Z,9.20
2018-05-16T03:22:23.003Z,9.40
2018-05-16T03:22:58.263Z,9.60
2018-05-16T03:23:33.848Z,9.80
2018-05-16T03:24:09.244Z,9.30
2018-05-16T03:24:44.477Z,9.50
2018-05-16T03:25:19.865Z,9.90
2018-05-16T03:25:55.098Z,9.40
2018-05-16T03:26:30.464Z,9.20
2018-05-16T03:27:05.898Z,9.30
2018-05-16T03:27:41.133Z,10.20
2018-05-16T03:28:16.819Z,9.90
2018-05-16T03:28:52.283Z,9.00
2018-05-16T03:29:27.867Z,9.20
2018-05-16T03:30:03.111Z,8.80
2018-05-16T03:30:38.576Z,9.70
2018-05-16T03:31:14.109Z,9.50
2018-05-16T03:31:49.576Z,9.60
2018-05-16T03:32:24.722Z,9.50
2018-05-16T03:33:00.133Z,10.00
2018-05-16T03:33:35.712Z,10.60
2018-05-16T03:34:10.964Z,9.90
2018-05-16T03:34:46.417Z,10.30
2018-05-16T03:35:22.153Z,10.10
2018-05-16T03:35:57.731Z,9.30
2018-05-16T03:36:33.082Z,8.60
2018-05-16T03:37:08.442Z,8.50
2018-05-16T03:37:44.047Z,9.60
2018-05-16T03:38:19.752Z,9.70
2018-05-16T03:38:55.010Z,9.50
2018-05-16T03:39:30.333Z,9.60
2018-05-16T03:40:05.661Z,9.30
2018-05-16T03:40:40.853Z,9.50
2018-05-16T03:41:16.513Z,10.10
2018-05-16T03:41:51.941Z,10.20
2018-05-16T03:42:27.777Z,9.60
2018-05-16T03:43:03.106Z,9.20
2018-05-16T03:43:38.476Z,9.40
2018-05-16T03:44:14.005Z,9.10
2018-05-16T03:44:49.397Z,9.20
2018-05-16T03:45:24.786Z,8.80
2018-05-16T03:46:00.236Z,9.40
2018-05-16T03:46:35.650Z,10.00
2018-05-16T03:47:11.056Z,9.40
2018-05-16T03:47:46.304Z,9.10
2018-05-16T03:48:21.497Z,9.40
2018-05-16T03:48:56.690Z,8.80
2018-05-16T03:49:31.789Z,9.40
2018-05-16T03:50:07.314Z,9.80
2018-05-16T03:50:42.577Z,9.50
2018-05-16T03:51:17.980Z,9.40
2018-05-16T03:51:53.474Z,9.10
2018-05-16T03:52:28.903Z,9.10
2018-05-16T03:53:04.112Z,9.30
2018-05-16T03:53:39.470Z,9.70
2018-05-16T03:54:14.734Z,9.60
2018-05-16T03:54:49.997Z,9.40
2018-05-16T03:55:25.424Z,10.20
2018-05-16T03:56:00.623Z,10.00
2018-05-16T03:56:36.298Z,9.80
2018-05-16T03:57:11.530Z,9.90
2018-05-16T03:57:47.062Z,9.80
2018-05-16T03:58:22.436Z,10.10
2018-05-16T03:58:57.718Z,9.60
2018-05-16T03:59:33.123Z,9.70
2018-05-16T04:00:08.443Z,9.80
2018-05-16T04:00:43.866Z,9.40
2018-05-16T04:01:19.061Z,9.30
2018-05-16T04:01:54.499Z,9.50
2018-05-16T04:02:30.013Z,8.90
2018-05-16T04:03:05.503Z,9.20
2018-05-16T04:03:41.005Z,9.50
2018-05-16T04:04:16.350Z,8.40
2018-05-16T04:04:52.668Z,8.90
2018-05-16T04:05:28.098Z,9.20
2018-05-16T04:06:03.874Z,10.10
2018-05-16T04:06:39.328Z,9.70
2018-05-16T04:07:14.740Z,9.10
2018-05-16T04:07:50.146Z,9.70
2018-05-16T04:08:26.000Z,10.20
2018-05-16T04:09:01.488Z,10.60
2018-05-16T04:09:37.222Z,9.70
2018-05-16T04:10:12.715Z,9.30
2018-05-16T04:10:48.365Z,9.30
2018-05-16T04:11:23.940Z,9.50
2018-05-16T04:11:59.237Z,9.50
2018-05-16T04:12:34.768Z,9.50
2018-05-16T04:13:10.172Z,9.70
2018-05-16T04:13:45.384Z,9.40
2018-05-16T04:14:20.682Z,9.60
2018-05-16T04:14:55.960Z,9.20
2018-05-16T04:15:31.532Z,10.00
2018-05-16T04:16:07.067Z,9.90
2018-05-16T04:16:42.508Z,10.00
2018-05-16T04:17:17.891Z,9.90
2018-05-16T04:17:53.764Z,10.00
2018-05-16T04:18:29.149Z,10.00
2018-05-16T04:19:04.713Z,9.80
2018-05-16T04:19:40.050Z,10.00
2018-05-16T04:20:15.390Z,9.90
2018-05-16T04:20:50.505Z,10.00
2018-05-16T04:21:25.920Z,9.90
2018-05-16T04:22:01.597Z,10.30
2018-05-16T04:22:37.138Z,10.10
2018-05-16T04:23:12.479Z,10.00
2018-05-16T04:23:48.000Z,9.70
2018-05-16T04:24:23.240Z,10.20
2018-05-16T04:24:58.644Z,9.90
2018-05-16T04:25:34.181Z,10.80
2018-05-16T04:26:09.593Z,10.30
2018-05-16T04:26:45.330Z,10.40
2018-05-16T04:27:20.630Z,9.60
2018-05-16T04:27:55.807Z,9.20
2018-05-16T04:28:31.419Z,9.30
2018-05-16T04:29:06.796Z,9.80
2018-05-16T04:29:42.130Z,10.50
2018-05-16T04:30:17.409Z,10.10
2018-05-16T04:30:53.001Z,10.40
2018-05-16T04:31:28.476Z,10.20
2018-05-16T04:32:03.891Z,10.10
2018-05-16T04:32:39.132Z,10.00
2018-05-16T04:33:14.644Z,9.70
2018-05-16T04:33:49.895Z,10.00
2018-05-16T04:34:25.237Z,10.50
2018-05-16T04:35:00.906Z,10.60
2018-05-16T04:35:36.376Z,10.40
2018-05-16T04:36:11.621Z,9.80
2018-05-16T04:36:46.952Z,10.60
2018-05-16T04:37:22.080Z,10.70
2018-05-16T04:37:57.659Z,10.40
2018-05-16T04:38:32.995Z,9.60
2018-05-16T04:39:08.327Z,9.80
2018-05-16T04:39:43.544Z,10.20
2018-05-16T04:40:19.121Z,9.40
2018-05-16T04:40:54.685Z,9.20
2018-05-16T04:41:30.451Z,9.00
2018-05-16T04:42:05.788Z,8.60
2018-05-16T04:42:41.147Z,9.20
2018-05-16T04:43:17.619Z,9.80
2018-05-16T04:43:53.184Z,9.60
2018-05-16T04:44:28.638Z,8.90
2018-05-16T04:45:04.111Z,9.10
2018-05-16T04:45:39.353Z,9.10
2018-05-16T04:46:15.016Z,8.70
2018-05-16T04:46:50.231Z,7.90
2018-05-16T04:47:25.749Z,7.90
2018-05-16T04:48:01.106Z,7.80
2018-05-16T04:48:36.511Z,8.40
2018-05-16T04:49:12.152Z,8.00
2018-05-16T04:49:47.556Z,8.00
2018-05-16T04:50:23.210Z,8.90
2018-05-16T04:50:58.580Z,8.80
2018-05-16T04:51:33.995Z,8.80
2018-05-16T04:52:09.456Z,8.30
2018-05-16T04:52:45.075Z,8.10
2018-05-16T04:53:20.340Z,7.80
2018-05-16T04:53:55.834Z,8.20
2018-05-16T04:54:31.095Z,8.30
2018-05-16T04:55:06.133Z,8.10
2018-05-16T04:55:41.662Z,8.10
2018-05-16T04:56:16.836Z,7.20
2018-05-16T04:56:52.368Z,7.30
2018-05-16T04:57:27.593Z,7.90
2018-05-16T04:58:03.097Z,8.00
2018-05-16T04:58:38.880Z,7.20
2018-05-16T04:59:14.226Z,7.70
2018-05-16T04:59:49.747Z,6.70
2018-05-16T05:00:24.930Z,6.80
2018-05-16T05:01:00.327Z,6.60
2018-05-16T05:01:35.525Z,7.00
2018-05-16T05:02:10.755Z,6.60
2018-05-16T05:02:46.155Z,6.50
2018-05-16T05:03:21.526Z,7.00
2018-05-16T05:03:57.171Z,6.70
2018-05-16T05:04:32.580Z,6.70
2018-05-16T05:05:08.146Z,6.40
2018-05-16T05:05:43.406Z,6.30
2018-05-16T05:06:18.994Z,6.50
2018-05-16T05:06:54.662Z,7.00
2018-05-16T05:07:30.150Z,7.10
2018-05-16T05:08:05.543Z,6.50
2018-05-16T05:08:41.221Z,6.40
2018-05-16T05:09:16.775Z,6.60
2018-05-16T05:09:52.223Z,6.80
2018-05-16T05:10:27.591Z,6.00
2018-05-16T05:11:03.000Z,6.10
2018-05-16T05:11:38.431Z,9.50
2018-05-16T05:12:13.709Z,12.70
2018-05-16T05:12:48.824Z,10.40
2018-05-16T05:13:24.048Z,8.40
2018-05-16T05:13:59.373Z,7.30
2018-05-16T05:14:34.679Z,5.90
2018-05-16T05:15:10.044Z,5.60
2018-05-16T05:15:45.633Z,5.80
2018-05-16T05:16:20.965Z,6.00
2018-05-16T05:16:56.223Z,6.10
2018-05-16T05:17:31.652Z,5.30
2018-05-16T05:18:07.169Z,5.40
2018-05-16T05:18:42.554Z,5.30
2018-05-16T05:19:18.005Z,5.80
2018-05-16T05:19:53.499Z,6.30
2018-05-16T05:20:28.926Z,6.00
2018-05-16T05:21:04.392Z,5.60
2018-05-16T05:21:40.099Z,5.40
2018-05-16T05:22:15.598Z,5.80
2018-05-16T05:22:50.972Z,6.10
2018-05-16T05:23:26.211Z,5.90
2018-05-16T05:24:01.504Z,5.50
2018-05-16T05:24:36.554Z,6.00
2018-05-16T05:25:11.839Z,6.50
2018-05-16T05:25:46.918Z,6.80
2018-05-16T05:26:21.999Z,7.20
2018-05-16T05:26:57.385Z,6.50
2018-05-16T05:27:32.816Z,5.80
2018-05-16T05:28:08.249Z,6.30
2018-05-16T05:28:43.298Z,6.10
2018-05-16T05:29:19.044Z,6.20
2018-05-16T05:29:54.225Z,5.70
2018-05-16T05:30:29.868Z,5.50
2018-05-16T05:31:05.362Z,5.50
2018-05-16T05:31:41.022Z,5.70
2018-05-16T05:32:16.294Z,5.90
2018-05-16T05:32:51.727Z,6.30
2018-05-16T05:33:27.013Z,6.30
2018-05-16T05:34:02.479Z,6.30
2018-05-16T05:34:38.428Z,5.70
2018-05-16T05:35:13.581Z,5.50
2018-05-16T05:35:49.769Z,5.30
2018-05-16T05:36:25.253Z,5.30
2018-05-16T05:37:00.643Z,5.40
2018-05-16T05:37:35.919Z,5.80
2018-05-16T05:38:11.702Z,5.90
2018-05-16T05:38:46.825Z,6.10
2018-05-16T05:39:22.036Z,5.50
2018-05-16T05:39:57.405Z,5.00
2018-05-16T05:40:32.830Z,4.90
2018-05-16T05:41:08.119Z,4.80
2018-05-16T05:41:43.488Z,5.10
2018-05-16T05:42:18.784Z,4.80
2018-05-16T05:42:54.333Z,4.80
2018-05-16T05:43:29.765Z,5.50
2018-05-16T05:44:04.821Z,5.60
2018-05-16T05:44:40.128Z,5.60
2018-05-16T05:45:15.574Z,5.50
2018-05-16T05:45:50.864Z,5.10
2018-05-16T05:46:26.479Z,5.30
2018-05-16T05:47:01.891Z,5.30
2018-05-16T05:47:37.080Z,5.40
2018-05-16T05:48:12.217Z,6.30
2018-05-16T05:48:47.399Z,5.90
2018-05-16T05:49:22.827Z,5.50
2018-05-16T05:49:58.323Z,5.60
2018-05-16T05:50:34.002Z,5.50
2018-05-16T05:51:09.380Z,5.20
2018-05-16T05:51:44.756Z,5.30
2018-05-16T05:52:20.194Z,4.70
2018-05-16T05:52:55.540Z,5.30
2018-05-16T05:53:30.727Z,5.70
2018-05-16T05:54:05.843Z,5.20
2018-05-16T05:54:41.066Z,5.10
2018-05-16T05:55:16.660Z,5.40
2018-05-16T05:55:51.898Z,5.30
2018-05-16T05:56:26.985Z,5.50
2018-05-16T05:57:02.396Z,5.30
2018-05-16T05:57:37.489Z,5.30
2018-05-16T05:58:13.055Z,5.40
2018-05-16T05:58:48.472Z,5.50
2018-05-16T05:59:24.062Z,5.10
2018-05-16T05:59:59.824Z,5.70
2018-05-16T06:00:35.575Z,5.70
2018-05-16T06:01:10.988Z,5.70
2018-05-16T06:01:46.175Z,5.30
2018-05-16T06:02:21.369Z,5.00
2018-05-16T06:02:56.711Z,5.10
2018-05-16T06:03:31.896Z,5.20
2018-05-16T06:04:07.267Z,5.10
2018-05-16T06:04:42.621Z,5.50
2018-05-16T06:05:18.784Z,5.90
2018-05-16T06:05:55.161Z,5.40
2018-05-16T06:06:30.773Z,6.10
2018-05-16T06:07:06.091Z,5.70
2018-05-16T06:07:41.796Z,5.60
2018-05-16T06:08:17.161Z,5.20
2018-05-16T06:08:52.722Z,5.90
2018-05-16T06:09:28.076Z,5.80
2018-05-16T06:10:03.486Z,5.80
2018-05-16T06:10:38.878Z,6.20
2018-05-16T06:11:14.237Z,5.90
2018-05-16T06:11:49.714Z,6.00
2018-05-16T06:12:25.009Z,5.90
2018-05-16T06:13:00.557Z,5.70
2018-05-16T06:13:36.000Z,5.80
2018-05-16T06:14:11.775Z,5.90
2018-05-16T06:14:47.008Z,6.20
2018-05-16T06:15:22.523Z,6.70
2018-05-16T06:15:57.951Z,6.80
2018-05-16T06:16:33.279Z,7.00
2018-05-16T06:17:09.859Z,6.70
2018-05-16T06:17:45.382Z,6.50
2018-05-16T06:18:21.428Z,6.50
2018-05-16T06:18:57.588Z,6.60
2018-05-16T06:19:33.182Z,6.80
2018-05-16T06:20:08.688Z,6.70
2018-05-16T06:20:45.183Z,6.50
2018-05-16T06:21:20.608Z,7.00
2018-05-16T06:21:55.873Z,7.70
2018-05-16T06:22:31.539Z,7.20
2018-05-16T06:23:06.739Z,7.20
2018-05-16T06:23:42.348Z,7.40
2018-05-16T06:24:17.409Z,7.90
2018-05-16T06:24:52.969Z,7.10
2018-05-16T06:25:28.632Z,7.00
2018-05-16T06:26:09.197Z,7.40
2018-05-16T06:26:44.641Z,7.50
2018-05-16T06:27:20.078Z,8.10
2018-05-16T06:27:57.764Z,7.50
2018-05-16T06:28:33.168Z,7.50
2018-05-16T06:29:08.597Z,8.10
2018-05-16T06:29:44.377Z,8.80
2018-05-16T06:30:20.139Z,8.10
2018-05-16T06:30:57.545Z,8.10
2018-05-16T06:31:32.957Z,8.30
2018-05-16T06:32:08.738Z,8.20
2018-05-16T06:32:44.630Z,7.80
2018-05-16T06:33:20.275Z,8.70
2018-05-16T06:33:55.898Z,8.30
2018-05-16T06:34:31.778Z,8.40
2018-05-16T06:35:07.044Z,8.90
2018-05-16T06:35:43.631Z,8.20
2018-05-16T06:36:18.973Z,8.00
2018-05-16T06:36:58.551Z,8.30
2018-05-16T06:37:34.183Z,9.00
2018-05-16T06:38:10.047Z,9.20
2018-05-16T06:38:46.882Z,8.30
2018-05-16T06:39:22.367Z,8.10
2018-05-16T06:39:57.678Z,8.00
2018-05-16T06:40:33.181Z,8.50
2018-05-16T06:41:11.436Z,8.30
2018-05-16T06:41:46.787Z,8.50
2018-05-16T06:42:22.259Z,8.50
2018-05-16T06:42:57.613Z,9.10
2018-05-16T06:43:32.971Z,8.60
2018-05-16T06:44:08.293Z,8.60
2018-05-16T06:44:47.587Z,9.00
2018-05-16T06:45:23.070Z,8.30
2018-05-16T06:45:58.253Z,8.10
2018-05-16T06:46:33.576Z,8.30
2018-05-16T06:47:08.918Z,8.00
2018-05-16T06:47:44.386Z,7.70
2018-05-16T06:48:19.678Z,7.80
2018-05-16T06:48:55.377Z,8.30
2018-05-16T06:49:30.811Z,8.40
2018-05-16T06:50:08.427Z,8.30
2018-05-16T06:50:44.298Z,8.40
2018-05-16T06:51:19.934Z,9.00
2018-05-16T06:51:55.509Z,9.00
2018-05-16T06:52:30.945Z,8.60
2018-05-16T06:53:06.461Z,8.40
2018-05-16T06:53:42.262Z,9.20
2018-05-16T06:54:17.730Z,9.20
2018-05-16T06:54:55.003Z,9.20
2018-05-16T06:55:30.352Z,9.20
2018-05-16T06:56:05.839Z,8.40
2018-05-16T06:56:41.617Z,8.10
2018-05-16T06:57:16.991Z,9.30
2018-05-16T06:57:52.330Z,10.00
2018-05-16T06:58:27.645Z,9.60
2018-05-16T06:59:03.315Z,9.00
2018-05-16T06:59:38.923Z,9.00
2018-05-16T07:00:14.395Z,9.00
2018-05-16T07:00:50.432Z,8.90
2018-05-16T07:01:28.910Z,9.80
2018-05-16T07:02:04.244Z,10.40
2018-05-16T07:02:39.749Z,9.80
2018-05-16T07:03:15.130Z,9.90
2018-05-16T07:03:50.370Z,9.70
2018-05-16T07:04:25.558Z,9.80
2018-05-16T07:05:01.120Z,9.60
2018-05-16T07:05:36.467Z,10.10
2018-05-16T07:06:11.914Z,10.80
2018-05-16T07:06:47.408Z,10.40
2018-05-16T07:07:22.642Z,10.50
2018-05-16T07:07:57.892Z,10.20
2018-05-16T07:08:33.366Z,9.80
2018-05-16T07:09:08.826Z,10.20
2018-05-16T07:09:44.193Z,10.70
2018-05-16T07:10:19.707Z,10.10
2018-05-16T07:10:55.048Z,11.00
2018-05-16T07:11:30.524Z,12.10
2018-05-16T07:12:05.957Z,11.70
2018-05-16T07:12:41.367Z,11.60
2018-05-16T07:13:16.682Z,11.30
2018-05-16T07:13:52.117Z,11.10
2018-05-16T07:14:27.503Z,11.20
2018-05-16T07:15:02.767Z,11.60
2018-05-16T07:15:38.564Z,11.80
2018-05-16T07:16:13.928Z,12.00
2018-05-16T07:16:49.339Z,12.20
2018-05-16T07:17:24.840Z,11.80
2018-05-16T07:18:00.430Z,12.30
2018-05-16T07:18:35.973Z,12.10
2018-05-16T07:19:11.279Z,12.20
2018-05-16T07:19:46.515Z,11.60
2018-05-16T07:20:22.022Z,11.50
2018-05-16T07:20:57.388Z,11.80
2018-05-16T07:21:32.826Z,11.90
2018-05-16T07:22:08.343Z,12.20
2018-05-16T07:22:43.859Z,12.00
2018-05-16T07:23:19.533Z,12.20
2018-05-16T07:23:55.037Z,11.40
2018-05-16T07:24:30.156Z,12.00
2018-05-16T07:25:05.764Z,12.50
2018-05-16T07:25:40.927Z,13.10
2018-05-16T07:26:16.270Z,11.90
2018-05-16T07:26:51.811Z,12.20
2018-05-16T07:27:27.034Z,12.20
2018-05-16T07:28:02.166Z,12.70
2018-05-16T07:28:37.349Z,13.40
2018-05-16T07:29:12.585Z,12.80
2018-05-16T07:29:49.208Z,13.00
2018-05-16T07:30:24.518Z,12.50
2018-05-16T07:31:00.095Z,13.00
2018-05-16T07:31:35.460Z,13.80
2018-05-16T07:32:10.934Z,13.80
2018-05-16T07:32:46.876Z,14.00
2018-05-16T07:33:22.179Z,13.30
2018-05-16T07:33:57.658Z,13.10
2018-05-16T07:34:33.196Z,13.30
2018-05-16T07:35:08.661Z,12.80
2018-05-16T07:35:43.952Z,12.30
2018-05-16T07:36:19.486Z,12.50
2018-05-16T07:36:54.890Z,12.20
2018-05-16T07:37:30.381Z,12.80
2018-05-16T07:38:05.950Z,13.00
2018-05-16T07:38:41.551Z,12.60
2018-05-16T07:39:16.857Z,12.60
2018-05-16T07:39:52.646Z,13.20
2018-05-16T07:40:28.067Z,12.70
2018-05-16T07:41:03.503Z,13.10
2018-05-16T07:41:38.872Z,13.40
2018-05-16T07:42:14.065Z,14.10
2018-05-16T07:42:49.698Z,14.50
2018-05-16T07:43:25.134Z,13.50
2018-05-16T07:44:01.255Z,13.10
2018-05-16T07:44:36.740Z,12.90
2018-05-16T07:45:12.092Z,13.20
2018-05-16T07:45:49.411Z,13.70
2018-05-16T07:46:25.047Z,13.50
2018-05-16T07:47:00.157Z,13.70
2018-05-16T07:47:35.544Z,12.80
2018-05-16T07:48:10.908Z,12.90
2018-05-16T07:48:48.532Z,14.00
2018-05-16T07:49:23.645Z,14.20
2018-05-16T07:49:58.942Z,13.70